Plymouth, Massachusetts
Current Conditions -  °F | °C
As of 10:52 AM on Saturday 25 Oct 2014 (Local Time) from KPYM Reporting Station
Clear Clear  
Wind Chill: 56°   Ceiling: Unl
Heat Index: 56°   Visibility: 10mi
Dew Point: 44°   Wind: 9mph
Humidity: 64%   Direction: 250°WSW
Pressure: 29.73"   Gusts: NA
Location:  41.95°N, 70.66°W
Report Text: KPYM 251452Z AUTO 25008KT 10SM CLR 13/07 A2973 RMK AO2 SLP068 T01330067 58015
Loading
Personal Weather Stations






























Interactive Weather Map
Tropical Storm Tracking
New forecast layout! Learn more

10-Day Weather Forecast

Advertisements
Track Severe Weather on mobile